עמוד ראשי
METAR-TAF:

METAR-TAF

שדות תעופה :

El Palmar

Santa Ana, אל סלוודור

קו רוחב: 13-59N, קו אורך: 089-34W, גובה: 725מטר

תצפית מזג אוויר נוכחית

הדו"ח נערך לפני 6 שעות ו 54דקות, בשעה 22:50 UTC
רוח רגועה
טמפרטורת 30 צלסיוס
לחות 66%
לחץ 1015 hPa
ראות 10 קילומטר או יותר
עננים פזורים בגובה 3700רגל

METAR: MSSA 242250Z 00000KT 9999 SCT037 30/23 Q1014 A2996

זמן: 23:44 (05:44 UTC)


TAF: חסר

תצפיות ותחזיות מזג אוויר לגבי יותר מ- 4,000 שדות תעופה ברחבי העולם. דוחות METAR ו- TAF.

התחנות הזמינות מסומנות בנקודות צהובות ואדומות על גבי המפה.

העבר את העכבר לנקודה הצבעונית על מנת לראות את שם התחנה.

לאחר מכן, לחץ כדי לראות את תוכן ואת תחזיות מזג האוויר.

כדי לשנות את המפה: לחץ על הכפתורים הירוקים עם הפלוס השחור כדי להתקרב; על הכפתור הירוק עם המקף כדי להתרחק; או בחיצים הירוקים למפות סמוכות.


METAR-TAF: